TABS, Texas Automated Buoy System, NOAA HAZMAT, Ocean Observatory, Real Time Oceanographic Data Supporting Oil Spill Prevention and Response

Texas General Land Office  Texas General
 Land Office
 Oil Spill Prevention
 & Response
Texas Automated Buoy System
Real Time Ocean Observations
Supporting Oil Spill Prevention and Response since 1995
Geochemical and Environmental Research Group

TABS Buoy J -- Texas Automated Buoy System

TABS Buoy J Conditions at 08/24/2016 14:00 UTC (08/24/2016 09:00 CDT)
26° 11.4840'N   97° 3.0420'W
AA3900 DCS - sensor depth 2m
Anemometer height: 4m
Water Depth: 68 feet (20 meters)
Speed: 12.36 cm/s (0.24 kts) Direction: 31 °T (NNE) Water Temp: 28°C (82 °F)
System Voltage: 13.2 V Signal Strength: -6.6 dB Ping Count: 170
Wind: 2.3 m/s (4.5 kts)
          From 189°T (S)
Air Temp: 27 °C (81 °F)
Relative Humidity:  N/A
Pressure: 1019.1 mb (30.10 inHg)

  


IMPORTANT: Notice to Mariners


Today's Meteorological Data (download)

   Date   |  Time  |  VEast   North    AirT  AtmPr     Gust   Comp   Tx   Ty    PAR   RelH
          |  (UTC) |  (m/s)|  (m/s)|   (°C)|  (mb) |  (m/s)|  (°M) |    |    |      |  (%) |
==========+========+=======+=======+=======+=======+=======+=======+====+====+======+======+
08/24/2016 00:00:00   -2.56    3.42    28.4 1018.39    4.99   249.2    1    4    0.0 -999.0
08/24/2016 00:30:00   -2.66    3.17    28.2 1018.51    4.86   250.2    1    4    0.0 -999.0
08/24/2016 01:00:00   -2.32    2.75    27.8 1018.54    4.42   248.5    1    3    0.0 -999.0
08/24/2016 01:30:00   -2.60    2.63    27.8 1018.37    4.49   244.8    1    3    0.0 -999.0
08/24/2016 02:00:00   -2.19    2.61    27.7 1018.54    4.17   248.0    1    3    0.0 -999.0
08/24/2016 02:30:00   -1.73    2.60    27.7 1018.55    3.79   249.3    1    3    0.0 -999.0
08/24/2016 03:00:00   -1.77    2.23    27.7 1018.77    3.40   241.9    1    3    0.0 -999.0
08/24/2016 03:30:00   -1.93    1.80    27.6 1019.24    3.03   247.7    1    3    0.0 -999.0
08/24/2016 04:00:00   -2.27    2.24    27.5 1019.40    3.73   243.3    1    4    0.0 -999.0
08/24/2016 04:30:00   -2.56    2.58    27.6 1019.40    4.44   242.5    1    4    0.0 -999.0
08/24/2016 05:00:00   -3.07    2.78    27.7 1019.44    4.78   235.4    1    4    0.0 -999.0
08/24/2016 05:30:00   -3.17    2.90    27.7 1019.41    4.92   233.8    1    4    0.0 -999.0
08/24/2016 06:00:00   -2.85    3.23    27.7 1019.47    5.13   240.2    1    4    0.0 -999.0
08/24/2016 06:30:00   -1.44    3.46    27.7 1019.49    4.54   249.9    1    4    0.0 -999.0
08/24/2016 07:00:00   -0.86    3.79    27.5 1019.52    4.65   252.2    1    4    0.0 -999.0
08/24/2016 07:30:00   -1.08    3.60    27.4 1019.20    4.64   250.7    1    4    0.0 -999.0
08/24/2016 08:00:00   -1.08    3.80    27.3 1019.08    4.91   252.7    1    4    0.0 -999.0
08/24/2016 08:30:00   -0.90    3.72    27.3 1018.86    4.63   250.9    1    4    0.0 -999.0
08/24/2016 09:00:00   -0.78    3.97    27.3 1018.74    4.90   254.5    1    4    0.0 -999.0
08/24/2016 09:30:00    0.11    3.76    27.0 1018.64    4.63   260.1    1    4    0.0 -999.0
08/24/2016 10:00:00    0.63    3.48    26.9 1018.67    4.28   259.6    1    4    0.0 -999.0
08/24/2016 10:30:00    0.12    3.65    26.6 1018.61    4.42   257.9    1    4    0.0 -999.0
08/24/2016 11:00:00    0.33    2.82    26.6 1018.48    3.37   255.3    1    3    0.0 -999.0
08/24/2016 11:30:00    0.28    2.74    26.7 1018.51    3.30   253.6    1    3    0.0 -999.0
08/24/2016 12:00:00    1.68    2.57    26.5 1018.68    3.82   263.3    1    3    0.0 -999.0
08/24/2016 12:30:00    0.97    2.76    26.4 1018.87    3.59   262.4    1    3    0.0 -999.0
08/24/2016 13:00:00    1.17    2.62    26.9 1018.89    3.32   262.9    1    3    0.0 -999.0
08/24/2016 13:30:00    1.30    2.65    27.2 1018.97    3.51   264.7    1    3    0.0 -999.0
08/24/2016 14:00:00    0.34    2.27    27.2 1019.14    2.76   258.8    1    3    0.0 -999.0